Time;durP1;ratioP1;P1;durP2;ratioP2;P2;SDS_P1;SDS_P2;PMS_P1;PMS_P2;Temp;Humidity;BMP_temperature;BMP_pressure;BME280_temperature;BME280_humidity;BME280_pressure;Samples;Min_cycle;Max_cycle;Signal;HPM_P1;HPM_P2
2021/06/12 00:02:25;;;;;;;8.43;7.35;;;;;;;17.46;81.19;99016.19;4993495;28;20480;-71
2021/06/12 00:04:50;;;;;;;10.23;8.23;;;;;;;17.47;82.03;99023.31;4993097;28;20037;-69
2021/06/12 00:07:16;;;;;;;8.20;7.05;;;;;;;17.41;82.15;99027.84;4994591;28;20030;-70
2021/06/12 00:09:42;;;;;;;11.13;8.07;;;;;;;17.34;82.65;99037.25;4994210;28;20058;-69
2021/06/12 00:12:08;;;;;;;9.98;8.25;;;;;;;17.35;82.80;99034.28;4990390;28;20451;-69
2021/06/12 00:14:33;;;;;;;10.52;7.82;;;;;;;17.15;83.10;99018.28;4993865;28;20113;-69
2021/06/12 00:16:59;;;;;;;14.55;8.80;;;;;;;17.05;83.89;99034.47;4994862;28;20496;-69
2021/06/12 00:19:24;;;;;;;14.25;9.75;;;;;;;16.87;84.35;99008.09;4992070;28;20489;-69
2021/06/12 00:21:50;;;;;;;15.70;10.30;;;;;;;16.75;84.54;98999.06;4993498;28;20133;-69
2021/06/12 00:24:15;;;;;;;13.00;9.70;;;;;;;16.79;84.99;99024.84;4989612;28;20105;-69
2021/06/12 00:26:40;;;;;;;11.90;10.10;;;;;;;16.56;85.61;99012.03;4994704;28;20033;-69
2021/06/12 00:29:06;;;;;;;16.02;9.93;;;;;;;16.60;86.41;99026.84;4994516;28;20037;-69
2021/06/12 00:31:31;;;;;;;13.95;9.77;;;;;;;16.48;86.50;99031.47;4994310;28;20388;-69
2021/06/12 00:33:57;;;;;;;15.75;9.35;;;;;;;16.51;86.90;99025.56;4993006;28;20026;-69
2021/06/12 00:36:22;;;;;;;12.02;10.20;;;;;;;16.44;87.15;99022.94;4993266;28;20026;-69
2021/06/12 00:38:49;;;;;;;17.23;10.27;;;;;;;16.36;86.97;99007.72;4993770;28;20105;-70
2021/06/12 00:41:14;;;;;;;14.30;9.20;;;;;;;16.32;87.42;99014.72;4993465;28;20027;-69
2021/06/12 00:43:42;;;;;;;11.80;9.50;;;;;;;16.29;87.48;99009.72;4990740;28;20038;-70
2021/06/12 00:46:08;;;;;;;13.38;10.70;;;;;;;16.30;87.33;99021.50;4993305;28;20034;-70
2021/06/12 00:48:33;;;;;;;15.70;11.35;;;;;;;16.20;87.97;99024.78;4993158;28;20030;-70
2021/06/12 00:50:59;;;;;;;17.17;12.65;;;;;;;16.11;88.83;99024.31;4992238;28;20138;-69
2021/06/12 00:53:40;;;;;;;13.70;11.55;;;;;;;15.95;88.57;99009.41;4992108;28;20030;-69
2021/06/12 00:56:08;;;;;;;16.90;12.15;;;;;;;16.02;89.64;99025.69;4993932;28;20487;-69
2021/06/12 00:58:36;;;;;;;15.18;12.35;;;;;;;16.12;89.70;99023.22;4993925;28;20034;-69
2021/06/12 01:01:03;;;;;;;14.18;10.40;;;;;;;16.25;88.66;99008.53;4993656;28;20058;-69
2021/06/12 01:03:29;;;;;;;10.57;9.25;;;;;;;16.36;87.50;99015.91;4992955;28;20018;-70
2021/06/12 01:05:56;;;;;;;10.85;8.73;;;;;;;16.37;86.92;99017.59;4993995;28;20023;-71
2021/06/12 01:08:21;;;;;;;13.57;8.25;;;;;;;16.39;86.57;99015.44;4995101;28;20057;-70
2021/06/12 01:10:46;;;;;;;11.77;8.80;;;;;;;16.37;86.61;99014.88;4995705;28;20466;-70
2021/06/12 01:13:31;;;;;;;12.38;8.63;;;;;;;16.29;86.50;99011.63;4994819;28;20030;-71
2021/06/12 01:16:29;;;;;;;10.75;8.50;;;;;;;16.12;86.87;99009.59;4994008;28;20476;-69
2021/06/12 01:18:57;;;;;;;11.23;8.82;;;;;;;15.99;87.90;99010.63;4964213;28;20050;-70
2021/06/12 01:21:34;;;;;;;11.68;9.50;;;;;;;15.88;88.07;99011.44;4990174;28;20034;-69
2021/06/12 01:24:14;;;;;;;12.35;9.95;;;;;;;15.78;88.62;99008.44;4989336;28;20042;-69
2021/06/12 01:27:01;;;;;;;15.35;10.23;;;;;;;15.75;88.88;99006.16;4987007;28;20023;-69
2021/06/12 01:29:38;;;;;;;13.07;10.13;;;;;;;15.64;89.63;99002.31;4991360;28;20034;-69
2021/06/12 01:32:06;;;;;;;11.40;10.20;;;;;;;15.67;90.02;99006.47;4992489;28;20034;-69
2021/06/12 01:34:32;;;;;;;13.60;9.10;;;;;;;15.51;89.58;98992.41;4991770;28;20472;-69
2021/06/12 01:37:00;;;;;;;12.48;8.63;;;;;;;15.57;88.60;98994.19;4992467;28;20026;-69
2021/06/12 01:39:27;;;;;;;16.98;9.10;;;;;;;15.57;88.73;98996.94;4992822;28;20472;-69
2021/06/12 01:41:57;;;;;;;12.98;9.73;;;;;;;15.64;89.08;99010.50;4993072;28;20026;-69
2021/06/12 01:44:23;;;;;;;11.68;9.13;;;;;;;15.61;89.19;98999.19;4992277;28;20026;-69
2021/06/12 01:46:51;;;;;;;11.75;9.07;;;;;;;15.78;89.13;99011.16;4987436;28;20062;-69
2021/06/12 01:49:18;;;;;;;11.65;8.85;;;;;;;15.77;88.88;99012.19;4992201;28;20053;-69
2021/06/12 01:51:45;;;;;;;11.20;8.90;;;;;;;15.79;89.19;99007.34;4992994;28;20030;-69
2021/06/12 01:54:11;;;;;;;13.35;9.18;;;;;;;15.75;88.59;98990.63;4992713;28;20028;-69
2021/06/12 01:56:38;;;;;;;14.13;9.10;;;;;;;15.75;88.97;99008.91;4991525;28;20052;-69
2021/06/12 01:59:04;;;;;;;14.25;9.98;;;;;;;15.66;89.76;99010.25;4992178;28;20100;-69
2021/06/12 02:01:31;;;;;;;11.90;9.07;;;;;;;15.61;89.58;99012.81;4991333;28;20034;-69
2021/06/12 02:03:58;;;;;;;11.75;9.05;;;;;;;15.43;89.84;98995.47;4991836;28;20507;-69
2021/06/12 02:06:25;;;;;;;10.80;8.77;;;;;;;15.57;89.95;99016.03;4992309;28;20026;-69
2021/06/12 02:08:51;;;;;;;14.77;9.32;;;;;;;15.51;89.92;99014.22;4991191;28;20030;-69
2021/06/12 02:11:18;;;;;;;9.25;8.25;;;;;;;15.39;90.00;99013.31;4986828;28;20030;-69
2021/06/12 02:13:47;;;;;;;11.10;8.57;;;;;;;15.34;90.38;99005.00;4992290;28;20069;-70
2021/06/12 02:16:13;;;;;;;10.45;9.32;;;;;;;15.36;90.88;99008.34;4990712;28;20027;-69
2021/06/12 02:18:43;;;;;;;10.35;8.65;;;;;;;15.33;90.83;99012.34;4992451;28;20064;-69
2021/06/12 02:21:09;;;;;;;10.82;8.70;;;;;;;15.30;90.42;99010.09;4992332;28;20028;-69
2021/06/12 02:23:35;;;;;;;11.63;9.02;;;;;;;15.19;90.36;99001.84;4991691;28;20026;-69
2021/06/12 02:26:02;;;;;;;11.43;9.43;;;;;;;15.17;91.31;99013.00;4991901;28;20070;-70
2021/06/12 02:28:35;;;;;;;12.82;9.00;;;;;;;15.25;90.86;99015.41;4992146;28;20041;-68
2021/06/12 02:31:05;;;;;;;13.13;8.63;;;;;;;15.31;91.06;99009.03;4982642;28;20492;-69
2021/06/12 02:33:33;;;;;;;16.58;9.63;;;;;;;15.25;91.14;99009.13;4988729;28;20034;-69
2021/06/12 02:36:00;;;;;;;12.48;9.15;;;;;;;15.34;91.13;99013.19;4991993;28;20500;-69
2021/06/12 02:38:25;;;;;;;11.43;9.25;;;;;;;15.31;90.78;99016.38;4992085;28;20037;-68
2021/06/12 02:40:51;;;;;;;11.32;9.32;;;;;;;15.20;91.14;99012.53;4992416;28;20026;-68
2021/06/12 02:43:16;;;;;;;12.73;9.68;;;;;;;15.31;91.31;99021.81;4991581;28;20101;-69
2021/06/12 02:45:42;;;;;;;11.90;8.85;;;;;;;15.09;91.20;99005.09;4991170;28;20029;-68
2021/06/12 02:48:13;;;;;;;17.23;10.43;;;;;;;15.03;91.53;99012.28;4993961;28;20442;-68
2021/06/12 02:50:40;;;;;;;12.13;9.23;;;;;;;15.12;91.87;99031.91;4995663;28;20026;-69
2021/06/12 02:53:08;;;;;;;13.15;10.15;;;;;;;15.02;91.38;99010.63;4995111;28;20031;-68
2021/06/12 02:55:42;;;;;;;13.93;9.07;;;;;;;15.00;91.29;99023.66;4995794;28;20122;-68
2021/06/12 02:58:09;;;;;;;11.40;9.32;;;;;;;14.85;91.19;99013.09;4995656;28;20148;-68
2021/06/12 03:00:36;;;;;;;11.80;8.95;;;;;;;14.98;89.68;99023.03;4994698;28;20030;-69
2021/06/12 03:03:03;;;;;;;12.63;9.30;;;;;;;14.69;90.03;98998.19;4982454;28;20498;-68
2021/06/12 03:05:31;;;;;;;12.27;8.48;;;;;;;14.77;89.68;99018.03;4984134;28;20031;-69
2021/06/12 03:07:58;;;;;;;11.18;9.57;;;;;;;14.80;90.53;99023.88;4981994;28;20026;-70
2021/06/12 03:10:27;;;;;;;11.38;8.27;;;;;;;14.86;91.25;99025.69;4991870;28;20045;-71
2021/06/12 03:12:55;;;;;;;11.13;9.77;;;;;;;14.85;91.56;99021.28;4995503;28;20109;-69
2021/06/12 03:15:21;;;;;;;12.38;10.30;;;;;;;14.79;91.34;98999.56;4994492;28;20030;-69
2021/06/12 03:17:50;;;;;;;13.93;9.07;;;;;;;14.87;91.31;99029.25;4994941;28;20027;-69
2021/06/12 03:20:17;;;;;;;15.30;10.02;;;;;;;14.86;91.12;99022.13;4995736;28;20034;-70
2021/06/12 03:22:45;;;;;;;12.75;9.30;;;;;;;14.78;91.54;99019.72;4989056;28;20388;-69
2021/06/12 03:25:12;;;;;;;12.57;9.63;;;;;;;14.86;92.02;99020.25;4995294;28;20053;-69
2021/06/12 03:27:37;;;;;;;13.63;10.77;;;;;;;14.94;91.91;99024.56;4993542;28;20038;-69
2021/06/12 03:30:03;;;;;;;12.93;10.48;;;;;;;14.78;91.35;99014.25;4994994;28;20038;-69
2021/06/12 03:32:29;;;;;;;13.32;11.38;;;;;;;14.82;91.93;99020.91;4994711;28;20022;-69
2021/06/12 03:34:55;;;;;;;13.35;10.68;;;;;;;14.68;91.78;99007.44;4994564;28;20030;-69
2021/06/12 03:37:21;;;;;;;15.70;11.52;;;;;;;14.73;92.20;99016.81;4995231;28;20038;-69
2021/06/12 03:39:46;;;;;;;15.00;11.38;;;;;;;14.75;92.18;99017.41;4994791;28;20378;-69
2021/06/12 03:42:13;;;;;;;15.85;10.27;;;;;;;14.87;91.68;99012.91;4994006;28;20041;-70
2021/06/12 03:44:39;;;;;;;12.18;9.90;;;;;;;14.95;90.84;99003.59;4994657;28;20165;-69
2021/06/12 03:47:07;;;;;;;14.10;10.70;;;;;;;14.92;90.53;98996.69;4994102;28;20544;-69
2021/06/12 03:49:33;;;;;;;16.80;10.75;;;;;;;15.06;90.57;99020.03;4994226;28;20113;-70
2021/06/12 03:51:58;;;;;;;12.60;10.07;;;;;;;15.01;90.38;99017.16;4994556;28;20033;-69
2021/06/12 03:54:24;;;;;;;11.65;9.70;;;;;;;15.01;90.00;99027.19;4994840;28;20018;-69
2021/06/12 03:56:50;;;;;;;11.65;9.88;;;;;;;14.99;89.79;99022.00;4993669;28;20034;-71
2021/06/12 03:59:16;;;;;;;12.90;9.80;;;;;;;15.03;89.45;99027.81;4993594;28;20034;-69
2021/06/12 04:01:42;;;;;;;14.65;9.38;;;;;;;15.02;88.76;99029.72;4993980;28;20037;-68
2021/06/12 04:04:07;;;;;;;14.13;9.98;;;;;;;15.15;88.90;99047.81;4993431;28;20026;-69
2021/06/12 04:06:33;;;;;;;11.80;9.60;;;;;;;15.07;88.73;99032.59;4993648;28;20477;-69
2021/06/12 04:08:58;;;;;;;14.27;11.00;;;;;;;15.21;89.75;99048.78;4994444;28;20041;-69
2021/06/12 04:11:23;;;;;;;13.75;11.05;;;;;;;15.15;90.17;99033.34;4993410;28;20033;-69
2021/06/12 04:13:49;;;;;;;15.25;9.93;;;;;;;15.47;89.36;99056.63;4993744;28;20116;-69
2021/06/12 04:16:14;;;;;;;11.88;10.63;;;;;;;15.51;89.21;99065.19;4992826;28;20109;-69
2021/06/12 04:18:39;;;;;;;14.90;10.75;;;;;;;15.57;88.79;99059.66;4994054;28;20022;-69
2021/06/12 04:21:05;;;;;;;14.05;10.88;;;;;;;15.84;87.71;99053.88;4993441;28;20026;-70
2021/06/12 04:23:31;;;;;;;10.88;9.48;;;;;;;15.94;86.54;99050.59;4993925;28;20484;-69
2021/06/12 04:25:57;;;;;;;10.45;9.30;;;;;;;15.93;85.98;99059.84;4979468;28;20307;-70
2021/06/12 04:28:23;;;;;;;10.52;9.40;;;;;;;16.05;85.87;99057.16;4993239;28;20034;-70
2021/06/12 04:30:50;;;;;;;11.65;8.95;;;;;;;16.14;84.66;99051.13;4993312;28;20054;-69
2021/06/12 04:33:15;;;;;;;10.45;9.00;;;;;;;16.15;84.38;99038.31;4992394;28;20085;-70
2021/06/12 04:35:41;;;;;;;11.52;8.52;;;;;;;16.27;83.54;99044.63;4988354;28;20030;-69
2021/06/12 04:38:06;;;;;;;12.52;9.23;;;;;;;16.26;83.41;99053.06;4993535;28;20097;-69
2021/06/12 04:40:35;;;;;;;13.45;8.65;;;;;;;16.41;83.36;99050.72;4993603;28;20061;-70
2021/06/12 04:43:01;;;;;;;12.27;8.95;;;;;;;16.29;83.64;99049.84;4993767;28;20045;-69
2021/06/12 04:45:27;;;;;;;13.27;8.98;;;;;;;16.25;83.81;99027.66;4994268;28;20045;-70
2021/06/12 04:47:52;;;;;;;15.48;8.63;;;;;;;16.51;82.88;99039.22;4993126;28;20395;-70
2021/06/12 04:50:18;;;;;;;13.43;8.68;;;;;;;16.85;81.99;99046.59;4994857;28;20506;-69
2021/06/12 04:52:44;;;;;;;10.55;8.70;;;;;;;16.99;81.31;99038.16;4992893;28;20499;-70
2021/06/12 04:55:11;;;;;;;13.48;8.45;;;;;;;17.22;80.63;99045.50;4993932;28;20404;-70
2021/06/12 04:57:38;;;;;;;12.98;8.40;;;;;;;17.38;80.54;99050.22;4993695;28;20026;-71
2021/06/12 05:00:06;;;;;;;12.07;9.18;;;;;;;17.29;79.46;99040.72;4994614;28;20056;-71
2021/06/12 05:02:31;;;;;;;10.35;9.10;;;;;;;17.36;79.52;99049.63;4993192;28;20042;-70
2021/06/12 05:04:57;;;;;;;11.55;8.88;;;;;;;17.45;79.24;99052.81;4994534;28;20126;-71
2021/06/12 05:07:22;;;;;;;11.23;8.95;;;;;;;17.27;79.35;99043.69;4992940;28;20468;-71
2021/06/12 05:09:47;;;;;;;10.30;8.55;;;;;;;17.51;79.40;99058.16;4991999;28;20119;-71
2021/06/12 05:12:13;;;;;;;12.15;8.60;;;;;;;17.70;77.65;99036.91;4987788;28;20030;-71
2021/06/12 05:14:38;;;;;;;10.95;8.95;;;;;;;17.93;78.02;99048.88;4989540;28;20018;-71
2021/06/12 05:17:07;;;;;;;10.98;9.05;;;;;;;17.84;77.57;99028.41;4992328;28;20019;-66
2021/06/12 05:19:32;;;;;;;11.10;9.02;;;;;;;17.98;76.79;99043.47;4993054;28;20373;-65
2021/06/12 05:21:58;;;;;;;11.82;9.45;;;;;;;17.98;76.78;99043.47;4991888;28;20026;-66
2021/06/12 05:24:24;;;;;;;11.32;8.00;;;;;;;18.27;76.09;99047.00;4992682;28;20026;-66
2021/06/12 05:26:49;;;;;;;11.85;8.98;;;;;;;18.56;74.97;99044.19;4993302;28;20021;-70
2021/06/12 05:29:15;;;;;;;10.55;7.80;;;;;;;18.76;73.50;99032.75;4993419;28;20463;-71
2021/06/12 05:31:40;;;;;;;10.30;8.15;;;;;;;18.82;73.46;99040.81;4993039;28;20552;-71
2021/06/12 05:34:05;;;;;;;9.48;8.48;;;;;;;18.61;74.37;99030.59;4991870;28;20393;-71
2021/06/12 05:36:32;;;;;;;10.27;8.70;;;;;;;18.94;73.62;99034.38;4993500;28;20476;-73
2021/06/12 05:38:57;;;;;;;11.43;8.18;;;;;;;18.95;73.77;99042.34;4992757;28;20045;-69
2021/06/12 05:41:23;;;;;;;9.02;8.13;;;;;;;19.21;73.50;99043.53;4991889;28;20411;-73
2021/06/12 05:43:48;;;;;;;10.30;8.10;;;;;;;19.62;72.21;99029.50;4992339;28;20034;-69
2021/06/12 05:46:14;;;;;;;11.27;8.20;;;;;;;19.77;70.82;99043.44;4990405;28;20137;-68
2021/06/12 05:48:39;;;;;;;11.65;7.75;;;;;;;19.83;71.47;99047.91;4991709;28;20022;-68
2021/06/12 05:51:05;;;;;;;10.73;7.68;;;;;;;19.56;72.27;99044.25;4993149;28;20463;-75
2021/06/12 05:53:30;;;;;;;8.70;7.40;;;;;;;20.14;70.65;99046.28;4990585;28;20033;-70
2021/06/12 05:55:55;;;;;;;12.52;7.78;;;;;;;20.41;69.51;99034.44;4992740;28;20022;-66
2021/06/12 05:58:21;;;;;;;10.07;7.60;;;;;;;20.68;69.96;99026.16;4991236;28;20073;-65
2021/06/12 06:00:46;;;;;;;8.32;7.43;;;;;;;20.82;69.01;99014.69;4990927;28;20058;-65
2021/06/12 06:03:11;;;;;;;11.95;8.00;;;;;;;21.09;68.11;99033.81;4991693;28;20463;-65
2021/06/12 06:05:37;;;;;;;9.48;7.32;;;;;;;21.13;67.47;99038.53;4991787;28;20030;-66
2021/06/12 06:08:02;;;;;;;10.43;7.40;;;;;;;21.35;67.05;99024.63;4992575;28;20031;-66
2021/06/12 06:10:27;;;;;;;8.15;7.30;;;;;;;22.01;65.23;99039.75;4982550;28;20403;-66
2021/06/12 06:12:53;;;;;;;10.23;7.65;;;;;;;21.93;64.38;99035.59;4979582;28;20093;-65
2021/06/12 06:15:18;;;;;;;12.02;7.80;;;;;;;22.05;63.86;99038.91;4978356;28;20452;-66
2021/06/12 06:17:44;;;;;;;8.57;7.00;;;;;;;22.65;63.12;99030.97;4981471;28;20384;-66
2021/06/12 06:20:12;;;;;;;10.13;6.88;;;;;;;23.00;60.30;99032.03;4982254;28;20073;-66
2021/06/12 06:22:37;;;;;;;9.95;7.60;;;;;;;22.71;61.12;99037.31;4982684;28;20062;-66
2021/06/12 06:25:05;;;;;;;10.32;8.02;;;;;;;22.34;62.13;99038.41;4977017;28;20030;-66
2021/06/12 06:27:30;;;;;;;10.63;8.02;;;;;;;22.52;61.89;99037.88;4979845;28;20468;-70
2021/06/12 06:29:55;;;;;;;10.77;7.50;;;;;;;22.31;62.43;99030.69;4980699;28;20129;-70
2021/06/12 06:32:21;;;;;;;9.07;7.53;;;;;;;22.57;61.58;99033.47;4982571;28;20551;-69
2021/06/12 06:34:46;;;;;;;8.48;7.45;;;;;;;22.49;61.46;99029.31;4981015;28;20030;-68
2021/06/12 06:37:11;;;;;;;10.45;7.60;;;;;;;22.72;61.13;99030.69;4976995;28;20019;-69
2021/06/12 06:39:37;;;;;;;9.57;7.60;;;;;;;23.25;59.62;99035.84;4987947;28;20034;-69
2021/06/12 06:42:03;;;;;;;8.45;7.55;;;;;;;23.00;59.79;99036.75;4984606;28;20026;-69
2021/06/12 06:44:29;;;;;;;9.55;7.53;;;;;;;23.54;58.68;99039.59;4980921;28;20040;-69
2021/06/12 06:46:54;;;;;;;8.80;6.60;;;;;;;24.01;57.91;99043.00;4978110;28;20034;-69
2021/06/12 06:49:19;;;;;;;8.60;6.68;;;;;;;23.89;57.42;99039.72;4985198;28;20033;-75
2021/06/12 06:51:45;;;;;;;9.57;7.03;;;;;;;23.16;59.02;99032.81;4990622;28;20029;-73
2021/06/12 06:54:10;;;;;;;9.13;7.25;;;;;;;23.55;58.24;99026.63;4991545;28;20030;-73
2021/06/12 06:56:36;;;;;;;7.47;6.68;;;;;;;23.43;58.99;99017.84;4990897;28;20018;-74
2021/06/12 06:59:01;;;;;;;9.80;7.60;;;;;;;24.38;56.27;99033.34;4991006;28;20047;-72
2021/06/12 07:01:26;;;;;;;8.98;7.22;;;;;;;25.20;54.36;99029.84;4992514;28;20085;-72
2021/06/12 07:03:52;;;;;;;8.60;7.28;;;;;;;26.91;50.91;99025.16;4990763;28;20030;-73
2021/06/12 07:06:17;;;;;;;10.10;7.28;;;;;;;26.96;50.03;99028.69;4990823;28;20453;-71
2021/06/12 07:08:43;;;;;;;10.07;7.07;;;;;;;27.32;49.05;99034.38;4990682;28;20022;-70
2021/06/12 07:11:08;;;;;;;7.45;6.65;;;;;;;28.79;46.18;99030.50;4990516;28;20540;-75
2021/06/12 07:13:34;;;;;;;9.48;6.07;;;;;;;29.42;44.72;99029.38;4991838;28;20439;-72
2021/06/12 07:16:00;;;;;;;8.98;6.50;;;;;;;29.46;44.26;99012.81;4991015;28;20392;-73
2021/06/12 07:18:25;;;;;;;8.07;6.35;;;;;;;28.59;45.93;99018.78;4990996;28;20026;-72
2021/06/12 07:20:51;;;;;;;9.13;6.13;;;;;;;28.37;46.77;99010.41;4992253;28;20019;-71
2021/06/12 07:23:17;;;;;;;8.65;6.32;;;;;;;29.08;45.17;99030.03;4991955;28;20081;-74
2021/06/12 07:25:44;;;;;;;8.55;6.25;;;;;;;28.05;46.42;99047.63;4990578;28;20467;-73
2021/06/12 07:28:09;;;;;;;6.70;6.00;;;;;;;28.11;46.10;99036.06;4989657;28;20480;-71
2021/06/12 07:30:39;;;;;;;6.97;6.28;;;;;;;28.25;46.50;99040.75;4992799;28;20036;-68
2021/06/12 07:33:07;;;;;;;6.80;6.00;;;;;;;28.70;45.56;99049.97;4992909;28;20057;-68
2021/06/12 07:35:32;;;;;;;8.52;5.38;;;;;;;29.35;44.53;99056.91;4994815;28;20105;-67
2021/06/12 07:37:57;;;;;;;11.77;6.85;;;;;;;29.73;43.45;99050.00;4993951;28;20030;-68
2021/06/12 07:40:23;;;;;;;6.80;5.93;;;;;;;28.39;45.55;99052.66;4994809;28;20037;-68
2021/06/12 07:42:48;;;;;;;9.52;6.30;;;;;;;29.02;44.86;99051.63;4994397;28;20034;-68
2021/06/12 07:45:13;;;;;;;6.60;5.68;;;;;;;30.88;42.19;99045.78;4994720;28;20113;-69
2021/06/12 07:47:39;;;;;;;7.25;5.40;;;;;;;31.18;41.52;99038.31;4994442;28;20480;-67
2021/06/12 07:50:04;;;;;;;7.10;5.15;;;;;;;31.92;40.51;99049.31;4992952;28;20033;-65
2021/06/12 07:52:30;;;;;;;8.80;5.10;;;;;;;31.74;39.89;99035.41;4992848;28;20109;-67
2021/06/12 07:54:55;;;;;;;9.38;5.18;;;;;;;32.64;39.17;99036.06;4994798;28;20091;-65
2021/06/12 07:57:20;;;;;;;5.68;4.70;;;;;;;33.77;36.40;99041.22;4994877;28;20065;-65
2021/06/12 07:59:46;;;;;;;7.95;4.80;;;;;;;34.05;35.31;99037.63;4994239;28;20467;-66
2021/06/12 08:02:11;;;;;;;6.35;4.63;;;;;;;34.94;35.15;99036.63;4993303;28;20026;-66
2021/06/12 08:04:36;;;;;;;5.53;4.57;;;;;;;36.46;32.87;99041.91;4993993;28;20360;-66
2021/06/12 08:07:02;;;;;;;7.75;4.85;;;;;;;36.40;32.99;99036.56;4994215;28;20030;-66
2021/06/12 08:09:28;;;;;;;5.47;4.75;;;;;;;33.71;36.34;99041.78;4994051;28;20034;-66
2021/06/12 08:11:54;;;;;;;5.32;4.68;;;;;;;34.46;35.21;99025.25;4994421;28;20436;-66
2021/06/12 08:14:19;;;;;;;5.30;4.50;;;;;;;35.71;34.09;99044.69;4994753;28;20054;-65
2021/06/12 08:16:45;;;;;;;4.45;4.05;;;;;;;35.94;33.38;99043.97;4994495;28;20026;-66
2021/06/12 08:19:11;;;;;;;5.20;4.22;;;;;;;35.71;34.21;99024.13;4994244;28;20101;-66
2021/06/12 08:21:36;;;;;;;5.10;3.95;;;;;;;36.70;32.97;99035.19;4987150;28;20030;-66
2021/06/12 08:24:02;;;;;;;4.65;3.30;;;;;;;36.66;33.03;99037.13;4975313;28;20026;-66
2021/06/12 08:26:28;;;;;;;9.60;3.25;;;;;;;37.87;31.82;99039.25;4975580;28;20030;-66
2021/06/12 08:28:54;;;;;;;5.93;2.97;;;;;;;37.65;31.85;99038.13;4986142;28;20677;-66
2021/06/12 08:31:20;;;;;;;5.18;3.00;;;;;;;36.66;33.50;99037.94;4992764;28;20026;-66
2021/06/12 08:33:45;;;;;;;6.88;2.72;;;;;;;36.63;32.62;99041.50;4990196;28;20756;-66
2021/06/12 08:36:11;;;;;;;5.32;2.65;;;;;;;36.91;32.70;99038.41;4994006;28;20037;-66
2021/06/12 08:38:36;;;;;;;3.60;2.90;;;;;;;35.07;34.73;99043.00;4994341;28;20492;-66
2021/06/12 08:41:01;;;;;;;4.05;3.20;;;;;;;34.44;36.50;99043.63;4992472;28;20022;-66
2021/06/12 08:43:27;;;;;;;5.15;3.00;;;;;;;36.01;34.59;99035.69;4992890;28;20169;-66
2021/06/12 08:45:59;;;;;;;5.53;2.80;;;;;;;36.15;34.64;99038.03;4992888;28;20030;-66
2021/06/12 08:48:26;;;;;;;4.18;2.90;;;;;;;36.01;34.45;99037.69;4994183;28;20540;-66
2021/06/12 08:50:53;;;;;;;4.97;3.50;;;;;;;35.30;35.21;99046.03;4992954;28;20034;-66
2021/06/12 08:53:18;;;;;;;7.30;3.00;;;;;;;35.61;34.42;99041.59;4993628;28;20129;-66
2021/06/12 08:55:45;;;;;;;6.85;4.10;;;;;;;36.03;32.92;99038.16;4993174;28;20034;-66
2021/06/12 08:58:11;;;;;;;4.63;3.40;;;;;;;35.88;33.70;99042.66;4993019;28;20499;-66
2021/06/12 09:00:37;;;;;;;3.97;3.20;;;;;;;36.50;33.36;99028.69;4994274;28;20030;-74
2021/06/12 09:03:16;;;;;;;8.65;3.97;;;;;;;36.69;32.89;99037.19;4994095;28;20030;-79
2021/06/12 09:06:01;;;;;;;7.40;3.72;;;;;;;36.82;32.22;99040.66;4997007;28;20507;-79
2021/06/12 09:08:29;;;;;;;5.55;3.45;;;;;;;36.04;32.56;99036.97;4999996;28;20547;-79
2021/06/12 09:11:15;;;;;;;5.35;3.20;;;;;;;35.94;33.17;99038.34;5001061;28;20030;-79
2021/06/12 09:13:50;;;;;;;5.10;2.88;;;;;;;36.67;34.05;99053.66;4981805;28;20025;-79
2021/06/12 09:16:35;;;;;;;3.42;2.60;;;;;;;38.02;31.37;99045.13;4992381;28;20085;-78
2021/06/12 09:19:05;;;;;;;6.32;3.15;;;;;;;37.18;31.85;99049.78;4995066;28;20026;-78
2021/06/12 09:21:34;;;;;;;4.72;3.20;;;;;;;36.55;32.70;99032.09;4994639;28;20027;-79
2021/06/12 09:24:01;;;;;;;4.90;3.10;;;;;;;34.68;35.56;99029.50;4995696;28;20400;-78
2021/06/12 09:26:44;;;;;;;5.50;3.13;;;;;;;34.32;36.34;99046.47;4997443;28;20106;-78
2021/06/12 09:29:10;;;;;;;8.60;3.38;;;;;;;35.55;34.06;99033.41;4995251;28;20034;-78
2021/06/12 09:31:44;;;;;;;5.95;3.03;;;;;;;35.80;33.85;99040.84;4993684;28;20110;-78
2021/06/12 09:34:12;;;;;;;4.85;3.10;;;;;;;36.16;33.48;98998.25;4994037;28;20085;-79
2021/06/12 09:36:37;;;;;;;3.23;2.67;;;;;;;37.56;32.12;99017.81;4997628;28;20022;-79
2021/06/12 09:39:15;;;;;;;3.85;3.22;;;;;;;37.08;31.74;99025.84;4996938;28;20110;-79
2021/06/12 09:42:00;;;;;;;4.43;2.80;;;;;;;36.58;32.76;99025.69;5001281;28;20034;-79
2021/06/12 09:44:45;;;;;;;4.18;3.05;;;;;;;34.83;34.37;99018.66;4994240;28;20344;-78
2021/06/12 09:47:10;;;;;;;3.03;2.70;;;;;;;33.67;37.17;99027.66;4998862;28;20026;-64
2021/06/12 09:49:38;;;;;;;7.47;2.60;;;;;;;34.38;36.68;99022.59;4992157;28;20500;-70
2021/06/12 09:52:04;;;;;;;4.10;2.53;;;;;;;35.48;35.08;99019.16;4991384;28;20030;-72
2021/06/12 09:54:34;;;;;;;4.15;3.00;;;;;;;35.90;33.20;99017.75;4991246;28;20576;-65
2021/06/12 09:57:00;;;;;;;3.95;2.90;;;;;;;36.15;33.20;99009.88;4992857;28;20026;-65
2021/06/12 09:59:25;;;;;;;4.90;3.05;;;;;;;35.85;32.36;99004.78;4990725;28;20026;-66
2021/06/12 10:01:50;;;;;;;3.30;2.22;;;;;;;36.76;32.34;99006.31;4991001;28;20034;-65
2021/06/12 10:04:17;;;;;;;6.82;3.00;;;;;;;36.42;32.18;99010.84;4992152;28;20100;-65
2021/06/12 10:06:42;;;;;;;3.95;2.20;;;;;;;37.41;32.19;99022.38;4992856;28;20035;-65
2021/06/12 10:09:08;;;;;;;4.90;2.63;;;;;;;36.81;32.79;99011.66;4992377;28;20044;-66
2021/06/12 10:11:35;;;;;;;3.95;2.60;;;;;;;36.76;33.17;99019.56;4992112;28;20480;-65
2021/06/12 10:14:02;;;;;;;4.40;2.78;;;;;;;35.45;35.40;99019.91;4991684;28;20026;-65
2021/06/12 10:16:30;;;;;;;3.28;2.70;;;;;;;36.12;32.62;99011.41;4992677;28;20113;-66
2021/06/12 10:18:57;;;;;;;4.53;2.03;;;;;;;37.52;31.18;99028.25;4992234;28;20511;-66
2021/06/12 10:21:23;;;;;;;4.25;2.38;;;;;;;37.78;30.75;99020.97;4991178;28;20376;-65
2021/06/12 10:23:50;;;;;;;2.47;1.70;;;;;;;37.76;30.21;99006.44;4992184;28;20022;-66
2021/06/12 10:26:18;;;;;;;4.25;2.05;;;;;;;38.25;30.75;99013.97;4991477;28;20026;-65
2021/06/12 10:28:44;;;;;;;3.20;2.13;;;;;;;35.44;33.05;99025.88;4973213;28;20384;-65
2021/06/12 10:31:19;;;;;;;9.07;2.17;;;;;;;36.89;32.80;99021.06;4988939;28;20041;-66
2021/06/12 10:33:52;;;;;;;3.58;2.20;;;;;;;38.12;30.39;99028.34;4990959;28;20037;-66
2021/06/12 10:36:22;;;;;;;4.00;2.25;;;;;;;37.96;31.49;99029.69;4992387;28;20057;-66
2021/06/12 10:38:48;;;;;;;5.68;2.28;;;;;;;36.41;33.72;99012.03;4992001;28;20037;-67
2021/06/12 10:41:16;;;;;;;3.90;2.25;;;;;;;35.52;33.58;99014.41;4990462;28;20030;-65
2021/06/12 10:43:42;;;;;;;2.63;2.00;;;;;;;36.91;32.63;98987.63;4992164;28;20037;-64
2021/06/12 10:46:07;;;;;;;6.20;2.65;;;;;;;38.00;31.74;99003.16;4991634;28;20026;-65
2021/06/12 10:48:38;;;;;;;3.47;2.10;;;;;;;37.30;32.81;99010.09;4989971;28;20093;-64
2021/06/12 10:51:04;;;;;;;4.53;2.35;;;;;;;37.30;31.98;98998.81;4988684;28;20034;-64
2021/06/12 10:53:33;;;;;;;2.40;2.17;;;;;;;36.09;33.44;98980.38;4988573;28;20121;-64
2021/06/12 10:56:01;;;;;;;4.05;2.30;;;;;;;34.71;36.08;98997.06;4989521;28;20030;-64
2021/06/12 10:58:29;;;;;;;2.97;2.50;;;;;;;33.72;37.61;98993.72;4988029;28;20034;-63
2021/06/12 11:01:08;;;;;;;4.13;2.40;;;;;;;35.07;36.01;98995.19;4989283;28;20081;-64
2021/06/12 11:09:27;;;;;;;2.45;1.90;;;;;;;33.44;37.76;98987.19;4992770;28;20049;-64
2021/06/12 11:12:22;;;;;;;7.95;2.30;;;;;;;33.08;38.12;98992.41;4991736;28;20038;-64
2021/06/12 11:15:07;;;;;;;2.50;2.10;;;;;;;35.10;36.01;98991.69;4988560;28;20492;-65
2021/06/12 11:17:33;;;;;;;2.00;1.80;;;;;;;36.10;34.39;98996.06;4973937;28;20026;-64
2021/06/12 11:19:58;;;;;;;3.65;1.90;;;;;;;34.81;36.01;98984.47;4983626;28;21000;-65
2021/06/12 11:22:37;;;;;;;3.03;1.73;;;;;;;35.02;35.74;98987.03;4992345;28;20026;-64
2021/06/12 11:25:08;;;;;;;3.72;1.67;;;;;;;36.16;33.79;98972.91;4991726;28;20026;-63
2021/06/12 11:27:45;;;;;;;2.35;1.73;;;;;;;35.32;34.42;98984.59;4991938;28;20041;-63
2021/06/12 11:30:16;;;;;;;3.15;1.80;;;;;;;35.06;34.41;98985.13;4985449;28;20527;-66
2021/06/12 11:33:00;;;;;;;5.90;1.70;;;;;;;35.22;33.53;98987.97;4991582;28;20084;-63
2021/06/12 11:35:37;;;;;;;4.22;1.70;;;;;;;35.21;34.08;98977.88;4982497;28;20030;-65
2021/06/12 11:38:04;;;;;;;5.88;1.80;;;;;;;34.96;35.16;98988.47;4992551;28;20519;-64